Home   Weather   Italy   Milan   Past weeks
Flag for Italy

Past Weather in Milan, Italy — Yesterday and Last 2 Weeks

Currently: 63 °F. Passing clouds. (Weather station: Milan / Linate, Italy). See more current weather

Past Weather in Milan — Graph

°F

Milan Temperature Yesterday

Maximum temperature yesterday: 59 °F (at 12:50 pm)
Minimum temperature yesterday: 45 °F (at 1:50 am)
Average temperature yesterday: 51 °F

High & Low Weather Summary for the Past Weeks

 TemperatureHumidityPressure
High84 °F (Apr 14, 5:20 pm)100% (Apr 8, 4:20 am)30.42 "Hg (Apr 8, 4:20 am)
Low39 °F (Apr 19, 6:20 am)12% (Apr 16, 3:20 pm)29.47 "Hg (Apr 16, 10:50 am)
Average61 °F69%30.05 "Hg
* Reported Apr 4 6:50 pm — Apr 19 6:50 pm, Milan. Weather by CustomWeather, © 2024

Note: Actual official high and low records may vary slightly from our data, if they occured in-between our weather recording intervals... More about our weather records

Milan Weather History for the Previous 24 Hours

Scroll right to see more
 ConditionsComfort  
Time TempWeatherWind HumidityBarometerVisibility
6:50 pm
Fri, Apr 19
66 °FPassing clouds.8 mph17%29.80 "HgN/A
6:20 pm66 °FPassing clouds.7 mph15%29.83 "HgN/A
5:50 pm66 °FPassing clouds.7 mph17%29.83 "HgN/A
5:20 pm66 °FPassing clouds.8 mph17%29.83 "HgN/A
4:50 pm66 °FPassing clouds.7 mph18%29.86 "HgN/A
4:20 pm64 °FPassing clouds.9 mph21%29.89 "HgN/A
3:50 pm64 °FPassing clouds.7 mph21%29.89 "HgN/A
3:20 pm64 °FPassing clouds.7 mph22%29.92 "HgN/A
2:20 pm63 °FSunny.6 mph19%29.95 "Hg10 mi
1:50 pm63 °FSunny.6 mph25%29.95 "Hg10 mi
1:20 pm61 °FPassing clouds.6 mph27%29.98 "HgN/A
12:50 pm61 °FSunny.2 mph29%29.98 "Hg10 mi
12:20 pm59 °FSunny.2 mph36%30.01 "Hg10 mi
11:50 am57 °FSunny.5 mph41%30.01 "Hg10 mi
11:20 am55 °FSunny.2 mph47%30.04 "Hg10 mi
10:50 am54 °FSunny.2 mph51%30.04 "Hg10 mi
10:20 am52 °FSunny.2 mph54%30.04 "Hg10 mi
9:50 am50 °FPassing clouds.5 mph67%30.04 "HgN/A
9:20 am46 °FSunny.1 mph66%30.04 "Hg10 mi
8:50 am45 °FSunny.3 mph76%30.04 "Hg10 mi
8:20 am43 °FPassing clouds.5 mph81%30.04 "HgN/A
7:50 am41 °FSunny.2 mph87%30.04 "Hg10 mi
7:20 am39 °FSunny.1 mph93%30.04 "Hg10 mi
6:50 am39 °FSunny.2 mph87%30.01 "Hg10 mi
6:20 am39 °FClear.3 mph87%30.01 "Hg10 mi
5:50 am41 °FPassing clouds.3 mph87%30.01 "HgN/A
5:20 am41 °FPassing clouds.3 mph87%30.01 "HgN/A
4:50 am43 °FClear.2 mph87%30.01 "Hg10 mi
4:20 am43 °FPassing clouds.3 mph87%30.01 "HgN/A
3:20 am43 °FClear.5 mph87%30.01 "Hg10 mi
2:50 am45 °FPassing clouds.3 mph81%30.01 "HgN/A
2:20 am45 °FClear.2 mph81%30.01 "Hg10 mi
1:50 am45 °FClear.2 mph87%30.01 "Hg10 mi
1:20 am45 °FClear.2 mph81%30.01 "Hg10 mi
12:50 am45 °FClear.1 mph87%30.01 "Hg10 mi
12:20 am43 °FClear.2 mph87%30.01 "Hg10 mi
11:50 pm
Thu, Apr 18
46 °FClear.2 mph82%29.98 "Hg10 mi
11:20 pm46 °FClear.2 mph82%29.98 "Hg10 mi
10:20 pm46 °FClear.3 mph82%29.95 "Hg10 mi
9:50 pm50 °FClear.2 mph71%29.95 "Hg10 mi
9:20 pm50 °FClear.1 mph71%29.95 "Hg10 mi
8:50 pm52 °FPassing clouds.2 mph62%29.92 "HgN/A
8:20 pm52 °FPassing clouds.2 mph58%29.92 "HgN/A
Weather by CustomWeather, © 2024

See weather overview